sensor_id;sensor_type;location;lat;lon;timestamp;temperature;humidity
14405;DHT22;14983;50.866;4.304;2022-10-03T00:00:14;10.40;99.90
14405;DHT22;14983;50.866;4.304;2022-10-03T00:03:15;10.30;99.90
14405;DHT22;14983;50.866;4.304;2022-10-03T00:05:55;10.30;99.90
14405;DHT22;14983;50.866;4.304;2022-10-03T00:11:26;10.20;99.90
14405;DHT22;14983;50.866;4.304;2022-10-03T00:14:00;10.10;99.90
14405;DHT22;14983;50.866;4.304;2022-10-03T00:16:38;10.10;99.90
14405;DHT22;14983;50.866;4.304;2022-10-03T00:19:19;10.10;99.90
14405;DHT22;14983;50.866;4.304;2022-10-03T00:21:59;10.00;99.90
14405;DHT22;14983;50.866;4.304;2022-10-03T00:24:43;10.00;99.90
14405;DHT22;14983;50.866;4.304;2022-10-03T00:27:26;10.00;99.90
14405;DHT22;14983;50.866;4.304;2022-10-03T00:30:10;10.00;99.90
14405;DHT22;14983;50.866;4.304;2022-10-03T00:32:56;9.90;99.90
14405;DHT22;14983;50.866;4.304;2022-10-03T00:35:43;9.90;99.90
14405;DHT22;14983;50.866;4.304;2022-10-03T00:38:30;10.00;99.90
14405;DHT22;14983;50.866;4.304;2022-10-03T00:41:16;9.90;99.90
14405;DHT22;14983;50.866;4.304;2022-10-03T00:47:06;10.50;99.90
14405;DHT22;14983;50.866;4.304;2022-10-03T00:55:40;9.80;99.90
14405;DHT22;14983;50.866;4.304;2022-10-03T00:58:21;9.80;99.90
14405;DHT22;14983;50.866;4.304;2022-10-03T01:00:56;10.20;99.90
14405;DHT22;14983;50.866;4.304;2022-10-03T01:03:44;10.20;99.90
14405;DHT22;14983;50.866;4.304;2022-10-03T01:06:29;9.80;99.90
14405;DHT22;14983;50.866;4.304;2022-10-03T01:12:16;9.80;99.90
14405;DHT22;14983;50.866;4.304;2022-10-03T01:14:57;9.80;99.90
14405;DHT22;14983;50.866;4.304;2022-10-03T01:17:33;9.70;99.90
14405;DHT22;14983;50.866;4.304;2022-10-03T01:20:17;9.70;99.90
14405;DHT22;14983;50.866;4.304;2022-10-03T01:23:04;9.70;99.90
14405;DHT22;14983;50.866;4.304;2022-10-03T01:25:39;9.70;99.90
14405;DHT22;14983;50.866;4.304;2022-10-03T01:28:38;9.70;99.90
14405;DHT22;14983;50.866;4.304;2022-10-03T01:31:32;9.70;99.90
14405;DHT22;14983;50.866;4.304;2022-10-03T01:34:09;9.70;99.90
14405;DHT22;14983;50.866;4.304;2022-10-03T01:36:44;9.70;99.90
14405;DHT22;14983;50.866;4.304;2022-10-03T01:39:23;10.80;99.90
14405;DHT22;14983;50.866;4.304;2022-10-03T01:41:58;9.60;99.90
14405;DHT22;14983;50.866;4.304;2022-10-03T01:44:35;10.00;99.90
14405;DHT22;14983;50.866;4.304;2022-10-03T01:47:13;9.70;99.90
14405;DHT22;14983;50.866;4.304;2022-10-03T01:49:50;9.70;99.90
14405;DHT22;14983;50.866;4.304;2022-10-03T01:52:26;9.70;99.90
14405;DHT22;14983;50.866;4.304;2022-10-03T01:55:00;9.60;99.90
14405;DHT22;14983;50.866;4.304;2022-10-03T01:57:33;9.60;99.90
14405;DHT22;14983;50.866;4.304;2022-10-03T02:00:07;9.60;99.90
14405;DHT22;14983;50.866;4.304;2022-10-03T02:02:43;9.60;99.90
14405;DHT22;14983;50.866;4.304;2022-10-03T02:05:14;9.60;99.90
14405;DHT22;14983;50.866;4.304;2022-10-03T02:07:49;9.60;99.90
14405;DHT22;14983;50.866;4.304;2022-10-03T02:10:27;9.60;99.90
14405;DHT22;14983;50.866;4.304;2022-10-03T02:13:02;9.80;99.90
14405;DHT22;14983;50.866;4.304;2022-10-03T02:15:42;9.50;99.90
14405;DHT22;14983;50.866;4.304;2022-10-03T02:18:17;9.50;99.90
14405;DHT22;14983;50.866;4.304;2022-10-03T02:20:51;9.50;99.90
14405;DHT22;14983;50.866;4.304;2022-10-03T02:23:25;10.20;99.90
14405;DHT22;14983;50.866;4.304;2022-10-03T02:26:28;9.50;99.90
14405;DHT22;14983;50.866;4.304;2022-10-03T02:29:21;9.50;99.90
14405;DHT22;14983;50.866;4.304;2022-10-03T02:32:18;9.60;99.90
14405;DHT22;14983;50.866;4.304;2022-10-03T02:35:27;9.50;99.90
14405;DHT22;14983;50.866;4.304;2022-10-03T02:38:22;9.50;99.90
14405;DHT22;14983;50.866;4.304;2022-10-03T02:41:04;9.50;99.90
14405;DHT22;14983;50.866;4.304;2022-10-03T02:44:08;9.50;99.90
14405;DHT22;14983;50.866;4.304;2022-10-03T02:47:15;9.40;99.90
14405;DHT22;14983;50.866;4.304;2022-10-03T02:50:08;9.50;99.90
14405;DHT22;14983;50.866;4.304;2022-10-03T02:53:03;9.40;99.90
14405;DHT22;14983;50.866;4.304;2022-10-03T03:01:49;9.30;99.90
14405;DHT22;14983;50.866;4.304;2022-10-03T03:04:47;9.40;99.90
14405;DHT22;14983;50.866;4.304;2022-10-03T03:07:34;9.60;99.90
14405;DHT22;14983;50.866;4.304;2022-10-03T03:10:27;9.30;99.90
14405;DHT22;14983;50.866;4.304;2022-10-03T03:13:37;9.30;99.90
14405;DHT22;14983;50.866;4.304;2022-10-03T03:16:37;9.20;99.90
14405;DHT22;14983;50.866;4.304;2022-10-03T03:19:31;9.20;99.90
14405;DHT22;14983;50.866;4.304;2022-10-03T03:22:10;9.10;99.90
14405;DHT22;14983;50.866;4.304;2022-10-03T03:24:53;9.10;99.90
14405;DHT22;14983;50.866;4.304;2022-10-03T03:27:42;10.60;99.90
14405;DHT22;14983;50.866;4.304;2022-10-03T03:30:17;9.10;99.90
14405;DHT22;14983;50.866;4.304;2022-10-03T03:32:57;9.10;99.90
14405;DHT22;14983;50.866;4.304;2022-10-03T03:35:41;9.40;99.90
14405;DHT22;14983;50.866;4.304;2022-10-03T03:38:26;9.10;99.90
14405;DHT22;14983;50.866;4.304;2022-10-03T03:41:18;9.10;99.90
14405;DHT22;14983;50.866;4.304;2022-10-03T03:43:58;9.10;99.90
14405;DHT22;14983;50.866;4.304;2022-10-03T03:46:41;9.00;99.90
14405;DHT22;14983;50.866;4.304;2022-10-03T03:49:30;9.40;99.90
14405;DHT22;14983;50.866;4.304;2022-10-03T03:52:18;9.00;99.90
14405;DHT22;14983;50.866;4.304;2022-10-03T03:55:01;9.00;99.90
14405;DHT22;14983;50.866;4.304;2022-10-03T04:00:35;9.40;99.90
14405;DHT22;14983;50.866;4.304;2022-10-03T04:03:15;8.90;99.90
14405;DHT22;14983;50.866;4.304;2022-10-03T04:06:01;8.90;99.90
14405;DHT22;14983;50.866;4.304;2022-10-03T04:08:45;8.90;99.90
14405;DHT22;14983;50.866;4.304;2022-10-03T04:11:23;10.10;99.90
14405;DHT22;14983;50.866;4.304;2022-10-03T04:14:15;8.90;99.90
14405;DHT22;14983;50.866;4.304;2022-10-03T04:16:55;8.80;99.90
14405;DHT22;14983;50.866;4.304;2022-10-03T04:19:54;8.70;99.90
14405;DHT22;14983;50.866;4.304;2022-10-03T04:22:37;9.30;99.90
14405;DHT22;14983;50.866;4.304;2022-10-03T04:25:17;8.70;99.90
14405;DHT22;14983;50.866;4.304;2022-10-03T04:30:58;8.60;99.90
14405;DHT22;14983;50.866;4.304;2022-10-03T04:33:38;8.60;99.90
14405;DHT22;14983;50.866;4.304;2022-10-03T04:36:41;8.70;99.90
14405;DHT22;14983;50.866;4.304;2022-10-03T04:39:19;8.60;99.90
14405;DHT22;14983;50.866;4.304;2022-10-03T04:41:54;8.60;99.90
14405;DHT22;14983;50.866;4.304;2022-10-03T04:44:34;9.80;99.90
14405;DHT22;14983;50.866;4.304;2022-10-03T04:47:15;8.50;99.90
14405;DHT22;14983;50.866;4.304;2022-10-03T04:49:51;8.50;99.90
14405;DHT22;14983;50.866;4.304;2022-10-03T04:52:27;7.10;99.90
14405;DHT22;14983;50.866;4.304;2022-10-03T04:55:16;8.50;99.90
14405;DHT22;14983;50.866;4.304;2022-10-03T04:57:51;8.50;99.90
14405;DHT22;14983;50.866;4.304;2022-10-03T05:00:21;8.50;99.90
14405;DHT22;14983;50.866;4.304;2022-10-03T05:02:56;8.50;99.90
14405;DHT22;14983;50.866;4.304;2022-10-03T05:05:40;8.60;99.90
14405;DHT22;14983;50.866;4.304;2022-10-03T05:08:34;8.50;99.90
14405;DHT22;14983;50.866;4.304;2022-10-03T05:11:13;8.50;99.90
14405;DHT22;14983;50.866;4.304;2022-10-03T05:13:59;8.50;99.90
14405;DHT22;14983;50.866;4.304;2022-10-03T05:16:42;9.40;99.90
14405;DHT22;14983;50.866;4.304;2022-10-03T05:19:39;8.50;99.90
14405;DHT22;14983;50.866;4.304;2022-10-03T05:22:19;8.50;99.90
14405;DHT22;14983;50.866;4.304;2022-10-03T05:24:56;8.60;99.90
14405;DHT22;14983;50.866;4.304;2022-10-03T05:27:32;8.50;99.90
14405;DHT22;14983;50.866;4.304;2022-10-03T05:30:06;8.50;99.90
14405;DHT22;14983;50.866;4.304;2022-10-03T05:32:40;8.40;99.90
14405;DHT22;14983;50.866;4.304;2022-10-03T05:35:44;8.40;99.90
14405;DHT22;14983;50.866;4.304;2022-10-03T05:38:39;8.40;99.90
14405;DHT22;14983;50.866;4.304;2022-10-03T05:41:21;8.30;99.90
14405;DHT22;14983;50.866;4.304;2022-10-03T05:44:00;8.30;99.90
14405;DHT22;14983;50.866;4.304;2022-10-03T05:49:56;7.70;99.90
14405;DHT22;14983;50.866;4.304;2022-10-03T05:55:45;9.00;99.90
14405;DHT22;14983;50.866;4.304;2022-10-03T05:58:47;8.30;99.90
14405;DHT22;14983;50.866;4.304;2022-10-03T06:01:45;8.90;99.90
14405;DHT22;14983;50.866;4.304;2022-10-03T06:04:43;8.20;99.90
14405;DHT22;14983;50.866;4.304;2022-10-03T06:07:20;8.20;99.90
14405;DHT22;14983;50.866;4.304;2022-10-03T06:10:03;8.20;99.90
14405;DHT22;14983;50.866;4.304;2022-10-03T06:12:43;8.20;99.90
14405;DHT22;14983;50.866;4.304;2022-10-03T06:21:48;8.10;99.90
14405;DHT22;14983;50.866;4.304;2022-10-03T06:25:05;8.20;99.90
14405;DHT22;14983;50.866;4.304;2022-10-03T06:34:24;8.20;99.90
14405;DHT22;14983;50.866;4.304;2022-10-03T06:40:30;8.10;99.90
14405;DHT22;14983;50.866;4.304;2022-10-03T06:46:29;8.20;99.90
14405;DHT22;14983;50.866;4.304;2022-10-03T06:49:27;5.90;99.90
14405;DHT22;14983;50.866;4.304;2022-10-03T06:52:21;7.90;99.90
14405;DHT22;14983;50.866;4.304;2022-10-03T06:58:37;8.40;99.90
14405;DHT22;14983;50.866;4.304;2022-10-03T07:04:30;8.30;99.90
14405;DHT22;14983;50.866;4.304;2022-10-03T07:10:28;8.60;99.90
14405;DHT22;14983;50.866;4.304;2022-10-03T07:16:28;8.90;99.90
14405;DHT22;14983;50.866;4.304;2022-10-03T07:19:41;8.90;99.90
14405;DHT22;14983;50.866;4.304;2022-10-03T07:22:52;9.00;99.90
14405;DHT22;14983;50.866;4.304;2022-10-03T07:25:41;9.00;99.90
14405;DHT22;14983;50.866;4.304;2022-10-03T07:28:47;8.90;99.90
14405;DHT22;14983;50.866;4.304;2022-10-03T07:31:35;9.10;99.90
14405;DHT22;14983;50.866;4.304;2022-10-03T07:37:05;9.00;99.90
14405;DHT22;14983;50.866;4.304;2022-10-03T07:40:17;9.30;99.90
14405;DHT22;14983;50.866;4.304;2022-10-03T07:46:14;9.50;99.90
14405;DHT22;14983;50.866;4.304;2022-10-03T07:49:14;9.80;99.90
14405;DHT22;14983;50.866;4.304;2022-10-03T07:51:55;9.90;99.90
14405;DHT22;14983;50.866;4.304;2022-10-03T07:57:42;10.10;99.90
14405;DHT22;14983;50.866;4.304;2022-10-03T08:00:18;10.20;99.90
14405;DHT22;14983;50.866;4.304;2022-10-03T08:06:22;10.40;99.90
14405;DHT22;14983;50.866;4.304;2022-10-03T08:09:24;10.40;99.90
14405;DHT22;14983;50.866;4.304;2022-10-03T08:12:20;9.50;99.90
14405;DHT22;14983;50.866;4.304;2022-10-03T08:15:08;10.60;99.90
14405;DHT22;14983;50.866;4.304;2022-10-03T08:17:56;10.70;99.90
14405;DHT22;14983;50.866;4.304;2022-10-03T08:20:45;10.80;99.90
14405;DHT22;14983;50.866;4.304;2022-10-03T08:23:55;11.00;99.90
14405;DHT22;14983;50.866;4.304;2022-10-03T08:26:41;11.10;99.90
14405;DHT22;14983;50.866;4.304;2022-10-03T08:47:31;12.00;99.90
14405;DHT22;14983;50.866;4.304;2022-10-03T08:53:50;12.30;99.90
14405;DHT22;14983;50.866;4.304;2022-10-03T08:56:26;12.30;99.90
14405;DHT22;14983;50.866;4.304;2022-10-03T08:59:29;12.40;99.90
14405;DHT22;14983;50.866;4.304;2022-10-03T09:05:36;12.80;99.90
14405;DHT22;14983;50.866;4.304;2022-10-03T09:08:37;13.20;99.90
14405;DHT22;14983;50.866;4.304;2022-10-03T09:11:47;13.50;99.90
14405;DHT22;14983;50.866;4.304;2022-10-03T09:14:42;13.60;99.90
14405;DHT22;14983;50.866;4.304;2022-10-03T09:26:56;14.30;99.90
14405;DHT22;14983;50.866;4.304;2022-10-03T09:29:40;14.40;99.90
14405;DHT22;14983;50.866;4.304;2022-10-03T09:32:47;14.60;99.90
14405;DHT22;14983;50.866;4.304;2022-10-03T09:38:48;14.60;99.90
14405;DHT22;14983;50.866;4.304;2022-10-03T09:41:30;14.60;99.90
14405;DHT22;14983;50.866;4.304;2022-10-03T09:44:30;14.80;99.90
14405;DHT22;14983;50.866;4.304;2022-10-03T09:47:57;14.70;99.90
14405;DHT22;14983;50.866;4.304;2022-10-03T10:00:10;14.90;99.90
14405;DHT22;14983;50.866;4.304;2022-10-03T10:03:19;15.10;99.90
14405;DHT22;14983;50.866;4.304;2022-10-03T10:06:09;15.20;99.90
14405;DHT22;14983;50.866;4.304;2022-10-03T10:12:03;15.40;99.90
14405;DHT22;14983;50.866;4.304;2022-10-03T10:15:00;15.20;99.90
14405;DHT22;14983;50.866;4.304;2022-10-03T10:17:55;15.20;99.90
14405;DHT22;14983;50.866;4.304;2022-10-03T10:23:42;15.60;99.90
14405;DHT22;14983;50.866;4.304;2022-10-03T10:36:12;15.80;99.90
14405;DHT22;14983;50.866;4.304;2022-10-03T10:54:38;16.70;1.00
14405;DHT22;14983;50.866;4.304;2022-10-03T10:57:28;16.50;1.00
14405;DHT22;14983;50.866;4.304;2022-10-03T11:00:20;16.70;37.80
14405;DHT22;14983;50.866;4.304;2022-10-03T11:03:36;17.30;1.00
14405;DHT22;14983;50.866;4.304;2022-10-03T11:06:56;17.20;1.00
14405;DHT22;14983;50.866;4.304;2022-10-03T11:13:19;16.70;99.90
14405;DHT22;14983;50.866;4.304;2022-10-03T11:16:30;16.90;65.50
14405;DHT22;14983;50.866;4.304;2022-10-03T11:19:28;17.20;99.90
14405;DHT22;14983;50.866;4.304;2022-10-03T11:22:36;16.80;1.00
14405;DHT22;14983;50.866;4.304;2022-10-03T11:25:40;17.00;99.90
14405;DHT22;14983;50.866;4.304;2022-10-03T11:32:02;17.30;99.90
14405;DHT22;14983;50.866;4.304;2022-10-03T11:35:15;18.10;54.50
14405;DHT22;14983;50.866;4.304;2022-10-03T11:37:53;18.00;1.00
14405;DHT22;14983;50.866;4.304;2022-10-03T11:40:30;18.20;1.00
14405;DHT22;14983;50.866;4.304;2022-10-03T11:43:25;19.40;99.90
14405;DHT22;14983;50.866;4.304;2022-10-03T11:46:19;19.90;1.00
14405;DHT22;14983;50.866;4.304;2022-10-03T11:48:53;19.00;1.00
14405;DHT22;14983;50.866;4.304;2022-10-03T11:51:39;21.60;99.90
14405;DHT22;14983;50.866;4.304;2022-10-03T11:54:18;20.10;99.90
14405;DHT22;14983;50.866;4.304;2022-10-03T11:56:58;18.70;99.90
14405;DHT22;14983;50.866;4.304;2022-10-03T11:59:48;18.80;99.90
14405;DHT22;14983;50.866;4.304;2022-10-03T12:02:35;18.00;1.00
14405;DHT22;14983;50.866;4.304;2022-10-03T12:05:18;17.80;99.90
14405;DHT22;14983;50.866;4.304;2022-10-03T12:07:57;19.50;99.90
14405;DHT22;14983;50.866;4.304;2022-10-03T12:10:54;21.10;99.90
14405;DHT22;14983;50.866;4.304;2022-10-03T12:13:31;21.70;1.00
14405;DHT22;14983;50.866;4.304;2022-10-03T12:16:05;22.00;1.00
14405;DHT22;14983;50.866;4.304;2022-10-03T12:18:51;22.00;1.00
14405;DHT22;14983;50.866;4.304;2022-10-03T12:21:24;23.90;1.00
14405;DHT22;14983;50.866;4.304;2022-10-03T12:24:10;23.80;1.00
14405;DHT22;14983;50.866;4.304;2022-10-03T12:26:48;23.50;1.00
14405;DHT22;14983;50.866;4.304;2022-10-03T12:29:20;24.80;1.00
14405;DHT22;14983;50.866;4.304;2022-10-03T12:31:59;22.70;1.00
14405;DHT22;14983;50.866;4.304;2022-10-03T12:34:35;21.40;1.00
14405;DHT22;14983;50.866;4.304;2022-10-03T12:37:34;20.90;99.90
14405;DHT22;14983;50.866;4.304;2022-10-03T12:40:11;20.00;1.00
14405;DHT22;14983;50.866;4.304;2022-10-03T12:42:46;19.00;99.90
14405;DHT22;14983;50.866;4.304;2022-10-03T12:45:22;20.30;1.00
14405;DHT22;14983;50.866;4.304;2022-10-03T12:48:18;20.90;98.10
14405;DHT22;14983;50.866;4.304;2022-10-03T12:50:53;21.00;99.90
14405;DHT22;14983;50.866;4.304;2022-10-03T12:53:33;20.80;99.90
14405;DHT22;14983;50.866;4.304;2022-10-03T12:56:13;20.80;99.90
14405;DHT22;14983;50.866;4.304;2022-10-03T12:58:54;21.60;99.90
14405;DHT22;14983;50.866;4.304;2022-10-03T13:01:39;20.10;99.90
14405;DHT22;14983;50.866;4.304;2022-10-03T13:04:19;19.40;1.00
14405;DHT22;14983;50.866;4.304;2022-10-03T13:06:58;19.00;1.00
14405;DHT22;14983;50.866;4.304;2022-10-03T13:09:48;19.00;18.30
14405;DHT22;14983;50.866;4.304;2022-10-03T13:12:27;19.60;1.00
14405;DHT22;14983;50.866;4.304;2022-10-03T13:20:59;18.80;99.90
14405;DHT22;14983;50.866;4.304;2022-10-03T13:23:41;18.80;99.90
14405;DHT22;14983;50.866;4.304;2022-10-03T13:26:15;18.70;99.90
14405;DHT22;14983;50.866;4.304;2022-10-03T13:28:59;19.00;99.90
14405;DHT22;14983;50.866;4.304;2022-10-03T13:31:30;18.60;99.90
14405;DHT22;14983;50.866;4.304;2022-10-03T13:34:03;18.60;99.90
14405;DHT22;14983;50.866;4.304;2022-10-03T13:36:41;18.60;99.90
14405;DHT22;14983;50.866;4.304;2022-10-03T13:39:12;18.60;99.90
14405;DHT22;14983;50.866;4.304;2022-10-03T13:41:59;18.60;99.90
14405;DHT22;14983;50.866;4.304;2022-10-03T13:44:35;18.50;99.90
14405;DHT22;14983;50.866;4.304;2022-10-03T13:47:12;18.80;99.90
14405;DHT22;14983;50.866;4.304;2022-10-03T13:49:51;18.90;99.90
14405;DHT22;14983;50.866;4.304;2022-10-03T13:52:27;18.70;99.90
14405;DHT22;14983;50.866;4.304;2022-10-03T13:55:10;18.30;99.90
14405;DHT22;14983;50.866;4.304;2022-10-03T13:57:45;18.00;99.90
14405;DHT22;14983;50.866;4.304;2022-10-03T14:00:19;18.10;99.90
14405;DHT22;14983;50.866;4.304;2022-10-03T14:02:57;17.90;99.90
14405;DHT22;14983;50.866;4.304;2022-10-03T14:05:42;18.30;99.90
14405;DHT22;14983;50.866;4.304;2022-10-03T14:08:17;18.20;99.90
14405;DHT22;14983;50.866;4.304;2022-10-03T14:14:12;18.00;1.00
14405;DHT22;14983;50.866;4.304;2022-10-03T14:16:52;17.90;1.00
14405;DHT22;14983;50.866;4.304;2022-10-03T14:19:30;18.00;99.90
14405;DHT22;14983;50.866;4.304;2022-10-03T14:22:35;18.20;99.90
14405;DHT22;14983;50.866;4.304;2022-10-03T14:25:19;17.00;58.10
14405;DHT22;14983;50.866;4.304;2022-10-03T14:27:50;18.20;99.90
14405;DHT22;14983;50.866;4.304;2022-10-03T14:30:21;17.50;18.30
14405;DHT22;14983;50.866;4.304;2022-10-03T14:33:04;18.50;1.00
14405;DHT22;14983;50.866;4.304;2022-10-03T14:35:44;18.70;1.00
14405;DHT22;14983;50.866;4.304;2022-10-03T14:38:39;18.60;1.00
14405;DHT22;14983;50.866;4.304;2022-10-03T14:41:38;18.70;1.00
14405;DHT22;14983;50.866;4.304;2022-10-03T14:44:10;19.00;1.00
14405;DHT22;14983;50.866;4.304;2022-10-03T14:46:41;18.80;1.00
14405;DHT22;14983;50.866;4.304;2022-10-03T14:49:19;18.40;1.00
14405;DHT22;14983;50.866;4.304;2022-10-03T14:51:50;18.30;1.00
14405;DHT22;14983;50.866;4.304;2022-10-03T14:54:24;18.50;1.00
14405;DHT22;14983;50.866;4.304;2022-10-03T14:56:56;18.50;1.00
14405;DHT22;14983;50.866;4.304;2022-10-03T14:59:27;18.60;1.00
14405;DHT22;14983;50.866;4.304;2022-10-03T15:01:57;18.60;1.00
14405;DHT22;14983;50.866;4.304;2022-10-03T15:04:29;18.70;1.00
14405;DHT22;14983;50.866;4.304;2022-10-03T15:06:58;18.20;99.90
14405;DHT22;14983;50.866;4.304;2022-10-03T15:09:32;18.00;99.90
14405;DHT22;14983;50.866;4.304;2022-10-03T15:12:10;18.00;99.90
14405;DHT22;14983;50.866;4.304;2022-10-03T15:14:41;18.90;99.90
14405;DHT22;14983;50.866;4.304;2022-10-03T15:17:17;18.30;99.90
14405;DHT22;14983;50.866;4.304;2022-10-03T15:19:48;18.50;99.90
14405;DHT22;14983;50.866;4.304;2022-10-03T15:22:28;18.20;99.90
14405;DHT22;14983;50.866;4.304;2022-10-03T15:25:04;18.10;99.90
14405;DHT22;14983;50.866;4.304;2022-10-03T15:27:33;18.00;99.90
14405;DHT22;14983;50.866;4.304;2022-10-03T15:30:04;18.00;1.00
14405;DHT22;14983;50.866;4.304;2022-10-03T15:32:34;17.90;1.00
14405;DHT22;14983;50.866;4.304;2022-10-03T15:35:03;18.00;99.90
14405;DHT22;14983;50.866;4.304;2022-10-03T15:37:39;18.00;99.90
14405;DHT22;14983;50.866;4.304;2022-10-03T15:40:20;18.10;99.90
14405;DHT22;14983;50.866;4.304;2022-10-03T15:42:52;18.20;99.90
14405;DHT22;14983;50.866;4.304;2022-10-03T15:45:29;18.00;99.90
14405;DHT22;14983;50.866;4.304;2022-10-03T15:48:00;17.60;99.90
14405;DHT22;14983;50.866;4.304;2022-10-03T15:50:29;17.40;1.00
14405;DHT22;14983;50.866;4.304;2022-10-03T15:53:02;17.30;1.00
14405;DHT22;14983;50.866;4.304;2022-10-03T15:55:36;17.30;1.00
14405;DHT22;14983;50.866;4.304;2022-10-03T15:58:13;17.30;1.00
14405;DHT22;14983;50.866;4.304;2022-10-03T16:00:41;17.20;1.00
14405;DHT22;14983;50.866;4.304;2022-10-03T16:03:13;17.00;1.00
14405;DHT22;14983;50.866;4.304;2022-10-03T16:05:52;17.10;99.90
14405;DHT22;14983;50.866;4.304;2022-10-03T16:08:26;17.00;99.90
14405;DHT22;14983;50.866;4.304;2022-10-03T16:11:04;16.80;99.90
14405;DHT22;14983;50.866;4.304;2022-10-03T16:13:35;16.70;99.90
14405;DHT22;14983;50.866;4.304;2022-10-03T16:16:16;16.50;1.00
14405;DHT22;14983;50.866;4.304;2022-10-03T16:18:52;16.50;1.00
14405;DHT22;14983;50.866;4.304;2022-10-03T16:21:40;16.50;1.00
14405;DHT22;14983;50.866;4.304;2022-10-03T16:24:19;16.40;1.00
14405;DHT22;14983;50.866;4.304;2022-10-03T16:26:52;16.50;99.90
14405;DHT22;14983;50.866;4.304;2022-10-03T16:29:23;16.50;1.00
14405;DHT22;14983;50.866;4.304;2022-10-03T16:31:54;16.50;99.90
14405;DHT22;14983;50.866;4.304;2022-10-03T16:34:24;16.50;1.00
14405;DHT22;14983;50.866;4.304;2022-10-03T16:36:52;16.20;1.00
14405;DHT22;14983;50.866;4.304;2022-10-03T16:39:22;16.20;1.00
14405;DHT22;14983;50.866;4.304;2022-10-03T16:41:52;16.10;99.90
14405;DHT22;14983;50.866;4.304;2022-10-03T16:44:23;16.00;1.00
14405;DHT22;14983;50.866;4.304;2022-10-03T16:46:53;16.00;1.00
14405;DHT22;14983;50.866;4.304;2022-10-03T16:49:37;16.00;1.00
14405;DHT22;14983;50.866;4.304;2022-10-03T16:52:28;16.00;1.00
14405;DHT22;14983;50.866;4.304;2022-10-03T16:55:00;15.80;99.90
14405;DHT22;14983;50.866;4.304;2022-10-03T16:57:39;15.90;99.90
14405;DHT22;14983;50.866;4.304;2022-10-03T17:00:14;15.90;99.90
14405;DHT22;14983;50.866;4.304;2022-10-03T17:02:42;15.80;99.90
14405;DHT22;14983;50.866;4.304;2022-10-03T17:05:12;15.90;1.00
14405;DHT22;14983;50.866;4.304;2022-10-03T17:07:41;15.70;1.00
14405;DHT22;14983;50.866;4.304;2022-10-03T17:10:27;15.80;1.00
14405;DHT22;14983;50.866;4.304;2022-10-03T17:13:00;15.70;1.00
14405;DHT22;14983;50.866;4.304;2022-10-03T17:15:33;15.80;99.90
14405;DHT22;14983;50.866;4.304;2022-10-03T17:18:18;15.70;1.00
14405;DHT22;14983;50.866;4.304;2022-10-03T17:20:49;15.60;99.90
14405;DHT22;14983;50.866;4.304;2022-10-03T17:23:31;15.50;99.90
14405;DHT22;14983;50.866;4.304;2022-10-03T17:26:05;15.30;47.10
14405;DHT22;14983;50.866;4.304;2022-10-03T17:28:43;15.30;1.00
14405;DHT22;14983;50.866;4.304;2022-10-03T17:31:24;15.20;1.00
14405;DHT22;14983;50.866;4.304;2022-10-03T17:34:02;15.20;1.00
14405;DHT22;14983;50.866;4.304;2022-10-03T17:39:49;15.10;99.90
14405;DHT22;14983;50.866;4.304;2022-10-03T17:42:37;15.10;99.90
14405;DHT22;14983;50.866;4.304;2022-10-03T17:48:10;15.00;99.90
14405;DHT22;14983;50.866;4.304;2022-10-03T17:50:56;15.00;99.90
14405;DHT22;14983;50.866;4.304;2022-10-03T17:53:29;15.70;99.90
14405;DHT22;14983;50.866;4.304;2022-10-03T17:56:05;14.90;1.00
14405;DHT22;14983;50.866;4.304;2022-10-03T17:58:37;14.80;56.70
14405;DHT22;14983;50.866;4.304;2022-10-03T18:01:14;14.70;99.90
14405;DHT22;14983;50.866;4.304;2022-10-03T18:03:47;14.60;99.90
14405;DHT22;14983;50.866;4.304;2022-10-03T18:09:25;14.50;99.90
14405;DHT22;14983;50.866;4.304;2022-10-03T18:12:09;14.30;99.90
14405;DHT22;14983;50.866;4.304;2022-10-03T18:14:56;14.20;99.90
14405;DHT22;14983;50.866;4.304;2022-10-03T18:17:33;14.10;99.90
14405;DHT22;14983;50.866;4.304;2022-10-03T18:20:14;14.10;99.90
14405;DHT22;14983;50.866;4.304;2022-10-03T18:22:57;14.00;99.90
14405;DHT22;14983;50.866;4.304;2022-10-03T18:25:28;14.00;99.90
14405;DHT22;14983;50.866;4.304;2022-10-03T18:28:18;14.10;99.90
14405;DHT22;14983;50.866;4.304;2022-10-03T18:30:52;14.10;99.90
14405;DHT22;14983;50.866;4.304;2022-10-03T18:33:30;14.10;99.90
14405;DHT22;14983;50.866;4.304;2022-10-03T18:36:13;14.00;99.90
14405;DHT22;14983;50.866;4.304;2022-10-03T18:38:42;14.00;99.90
14405;DHT22;14983;50.866;4.304;2022-10-03T18:41:19;14.00;99.90
14405;DHT22;14983;50.866;4.304;2022-10-03T18:43:52;13.90;99.90
14405;DHT22;14983;50.866;4.304;2022-10-03T18:46:26;13.90;99.90
14405;DHT22;14983;50.866;4.304;2022-10-03T18:49:01;14.00;99.90
14405;DHT22;14983;50.866;4.304;2022-10-03T18:51:33;14.00;99.90
14405;DHT22;14983;50.866;4.304;2022-10-03T18:54:21;13.90;99.90
14405;DHT22;14983;50.866;4.304;2022-10-03T18:57:05;13.90;99.90
14405;DHT22;14983;50.866;4.304;2022-10-03T18:59:37;13.80;99.90
14405;DHT22;14983;50.866;4.304;2022-10-03T19:02:16;13.80;99.90
14405;DHT22;14983;50.866;4.304;2022-10-03T19:04:58;13.70;99.90
14405;DHT22;14983;50.866;4.304;2022-10-03T19:07:32;13.70;99.90
14405;DHT22;14983;50.866;4.304;2022-10-03T19:10:11;13.60;99.90
14405;DHT22;14983;50.866;4.304;2022-10-03T19:13:12;13.50;99.90
14405;DHT22;14983;50.866;4.304;2022-10-03T19:16:12;13.40;99.90
14405;DHT22;14983;50.866;4.304;2022-10-03T19:18:43;13.40;99.90
14405;DHT22;14983;50.866;4.304;2022-10-03T19:21:17;13.30;99.90
14405;DHT22;14983;50.866;4.304;2022-10-03T19:23:48;13.30;99.90
14405;DHT22;14983;50.866;4.304;2022-10-03T19:26:21;13.20;99.90
14405;DHT22;14983;50.866;4.304;2022-10-03T19:28:52;13.30;99.90
14405;DHT22;14983;50.866;4.304;2022-10-03T19:31:26;13.20;99.90
14405;DHT22;14983;50.866;4.304;2022-10-03T19:33:58;13.10;99.90
14405;DHT22;14983;50.866;4.304;2022-10-03T19:36:28;13.10;99.90
14405;DHT22;14983;50.866;4.304;2022-10-03T19:38:57;13.10;99.90
14405;DHT22;14983;50.866;4.304;2022-10-03T19:41:28;12.00;99.90
14405;DHT22;14983;50.866;4.304;2022-10-03T19:44:01;13.70;99.90
14405;DHT22;14983;50.866;4.304;2022-10-03T19:46:57;13.00;99.90
14405;DHT22;14983;50.866;4.304;2022-10-03T19:49:37;13.00;99.90
14405;DHT22;14983;50.866;4.304;2022-10-03T19:52:30;13.10;99.90
14405;DHT22;14983;50.866;4.304;2022-10-03T19:55:00;13.00;99.90
14405;DHT22;14983;50.866;4.304;2022-10-03T19:57:37;13.00;99.90
14405;DHT22;14983;50.866;4.304;2022-10-03T20:00:06;12.90;99.90
14405;DHT22;14983;50.866;4.304;2022-10-03T20:02:54;12.90;99.90
14405;DHT22;14983;50.866;4.304;2022-10-03T20:05:26;13.90;99.90
14405;DHT22;14983;50.866;4.304;2022-10-03T20:08:13;12.90;99.90
14405;DHT22;14983;50.866;4.304;2022-10-03T20:10:51;13.20;99.90
14405;DHT22;14983;50.866;4.304;2022-10-03T20:13:23;12.90;99.90
14405;DHT22;14983;50.866;4.304;2022-10-03T20:15:50;12.90;99.90